Time;durP1;ratioP1;P1;durP2;ratioP2;P2;SDS_P1;SDS_P2;PMS_P1;PMS_P2;Temp;Humidity;BMP_temperature;BMP_pressure;BME280_temperature;BME280_humidity;BME280_pressure;Samples;Min_cycle;Max_cycle;Signal;HPM_P1;HPM_P2
2024/02/05 00:01:19;;;;;;;16.38;5.28;;;11.50;99.90;;;;;;4143715;28;20045;-93
2024/02/05 00:03:21;;;;;;;13.60;4.93;;;11.40;99.90;;;;;;4141878;28;20034;-93
2024/02/05 00:05:22;;;;;;;14.27;5.63;;;11.50;99.90;;;;;;4136483;28;20049;-94
2024/02/05 00:07:23;;;;;;;13.90;5.15;;;11.40;99.90;;;;;;4157848;28;20026;-93
2024/02/05 00:09:24;;;;;;;18.67;5.30;;;11.40;99.90;;;;;;4160869;28;20025;-93
2024/02/05 00:11:25;;;;;;;21.50;5.45;;;11.40;99.90;;;;;;4150201;28;20129;-91
2024/02/05 00:13:26;;;;;;;17.90;5.78;;;11.40;99.90;;;;;;4137923;28;20022;-94
2024/02/05 00:15:27;;;;;;;14.27;4.95;;;11.40;99.90;;;;;;4107536;28;20035;-94
2024/02/05 00:17:28;;;;;;;17.27;5.18;;;11.40;99.90;;;;;;4140000;28;20042;-93
2024/02/05 00:19:29;;;;;;;17.23;5.13;;;11.40;99.90;;;;;;4139231;28;20034;-91
2024/02/05 00:21:29;;;;;;;17.95;4.35;;;11.40;99.90;;;;;;4133840;28;20038;-92
2024/02/05 00:23:31;;;;;;;18.90;5.72;;;11.40;99.90;;;;;;4105718;28;20034;-93
2024/02/05 00:25:33;;;;;;;18.05;4.45;;;11.40;99.90;;;;;;4120076;28;20418;-94
2024/02/05 00:27:33;;;;;;;15.03;5.30;;;11.40;99.90;;;;;;4137912;28;20049;-92
2024/02/05 00:29:34;;;;;;;16.15;5.57;;;11.40;99.90;;;;;;4143957;28;20025;-94
2024/02/05 00:31:36;;;;;;;19.55;5.43;;;11.40;99.90;;;;;;4154702;28;20124;-91
2024/02/05 00:33:37;;;;;;;13.85;4.93;;;11.40;99.90;;;;;;4143283;28;20034;-92
2024/02/05 00:35:38;;;;;;;13.88;4.32;;;11.40;99.90;;;;;;4124023;28;20057;-92
2024/02/05 00:37:38;;;;;;;20.10;5.10;;;11.40;99.90;;;;;;4134944;28;20109;-92
2024/02/05 00:39:39;;;;;;;19.67;5.28;;;11.40;99.90;;;;;;4161796;28;20022;-91
2024/02/05 00:41:40;;;;;;;17.23;4.53;;;11.40;99.90;;;;;;4143040;28;20045;-92
2024/02/05 00:43:40;;;;;;;20.67;4.95;;;11.40;99.90;;;;;;4134701;28;20038;-93
2024/02/05 00:45:41;;;;;;;32.72;6.18;;;11.40;99.90;;;;;;4135361;28;20044;-91
2024/02/05 00:47:42;;;;;;;17.58;4.95;;;11.40;99.90;;;;;;4138311;28;20036;-91
2024/02/05 00:49:43;;;;;;;16.48;4.20;;;11.40;99.90;;;;;;4131032;28;20117;-92
2024/02/05 00:51:44;;;;;;;20.65;5.05;;;11.40;99.90;;;;;;4143748;28;20025;-92
2024/02/05 00:53:46;;;;;;;16.98;4.68;;;11.40;99.90;;;;;;4147069;28;20062;-91
2024/02/05 00:55:46;;;;;;;14.87;4.37;;;11.40;99.90;;;;;;4152215;28;20036;-92
2024/02/05 00:57:47;;;;;;;25.75;5.85;;;11.40;99.90;;;;;;4138523;28;20765;-91
2024/02/05 00:59:48;;;;;;;20.50;4.93;;;11.40;99.90;;;;;;4138691;28;20044;-91
2024/02/05 01:01:49;;;;;;;17.98;5.20;;;11.40;99.90;;;;;;4155692;28;20498;-91
2024/02/05 01:03:49;;;;;;;17.83;4.32;;;11.40;99.90;;;;;;4140715;28;20041;-92
2024/02/05 01:05:50;;;;;;;25.77;5.05;;;11.40;99.90;;;;;;4133677;28;20043;-92
2024/02/05 01:07:51;;;;;;;20.83;5.80;;;11.40;99.90;;;;;;4149659;28;20098;-91
2024/02/05 01:09:55;;;;;;;20.00;5.05;;;11.40;99.90;;;;;;4127368;28;20435;-92
2024/02/05 01:11:56;;;;;;;15.98;4.43;;;11.40;99.90;;;;;;4138701;28;20042;-92
2024/02/05 01:13:56;;;;;;;14.95;3.92;;;11.40;99.90;;;;;;4129251;28;20416;-91
2024/02/05 01:15:57;;;;;;;13.15;4.43;;;11.40;99.90;;;;;;4136807;28;20626;-92
2024/02/05 01:17:57;;;;;;;18.65;4.57;;;11.40;99.90;;;;;;4140201;28;20519;-91
2024/02/05 01:19:59;;;;;;;16.50;4.70;;;11.40;99.90;;;;;;4139351;28;20038;-91
2024/02/05 01:22:00;;;;;;;18.88;4.80;;;11.40;99.90;;;;;;4148824;28;20041;-92
2024/02/05 01:24:02;;;;;;;16.75;4.15;;;11.40;99.90;;;;;;4139882;28;20030;-91
2024/02/05 01:26:03;;;;;;;19.45;3.75;;;11.40;99.90;;;;;;4131531;28;20554;-92
2024/02/05 01:28:04;;;;;;;16.77;4.35;;;11.40;99.90;;;;;;4139569;28;20108;-91
2024/02/05 01:30:05;;;;;;;22.08;4.60;;;11.40;99.90;;;;;;4133949;28;20400;-92
2024/02/05 01:32:06;;;;;;;17.63;4.57;;;11.40;99.90;;;;;;4142431;28;20045;-92
2024/02/05 01:34:07;;;;;;;16.80;4.53;;;11.40;99.90;;;;;;4139182;28;20554;-91
2024/02/05 01:36:07;;;;;;;21.35;5.25;;;11.40;99.90;;;;;;4140167;28;20030;-91
2024/02/05 01:38:08;;;;;;;21.55;5.20;;;11.40;99.90;;;;;;4139434;28;20201;-89
2024/02/05 01:40:12;;;;;;;12.30;3.88;;;11.40;99.90;;;;;;4140883;28;20037;-92
2024/02/05 01:42:14;;;;;;;15.07;4.50;;;11.40;99.90;;;;;;4143516;28;20124;-92
2024/02/05 01:44:14;;;;;;;19.15;5.20;;;11.40;99.90;;;;;;4143037;28;20034;-91
2024/02/05 01:46:19;;;;;;;21.05;5.20;;;11.40;99.90;;;;;;4142561;28;20088;-91
2024/02/05 01:48:24;;;;;;;29.08;5.05;;;11.40;99.90;;;;;;4139044;28;20045;-90
2024/02/05 01:50:25;;;;;;;23.38;4.40;;;11.40;99.90;;;;;;4143556;28;20052;-91
2024/02/05 01:52:26;;;;;;;19.50;5.05;;;11.40;99.90;;;;;;4149970;28;20072;-92
2024/02/05 01:54:29;;;;;;;20.75;4.70;;;11.40;99.90;;;;;;4141524;28;20026;-90
2024/02/05 01:56:33;;;;;;;17.80;4.75;;;11.40;99.90;;;;;;4150660;28;20090;-91
2024/02/05 01:58:34;;;;;;;26.45;5.13;;;11.40;99.90;;;;;;4141969;28;20048;-91
2024/02/05 02:00:36;;;;;;;20.98;4.47;;;11.30;99.90;;;;;;4135256;28;20038;-91
2024/02/05 02:02:41;;;;;;;23.38;4.85;;;11.30;99.90;;;;;;4138534;28;20057;-92
2024/02/05 02:04:42;;;;;;;22.35;5.43;;;11.30;99.90;;;;;;4143267;28;20037;-91
2024/02/05 02:06:47;;;;;;;15.23;5.00;;;11.30;99.90;;;;;;4155634;28;20032;-92
2024/02/05 02:08:48;;;;;;;23.33;4.88;;;11.30;99.90;;;;;;4139933;28;20045;-90
2024/02/05 02:10:49;;;;;;;22.85;5.28;;;11.40;99.90;;;;;;4154681;28;20030;-92
2024/02/05 02:12:51;;;;;;;26.27;5.60;;;11.30;99.90;;;;;;4141391;28;20076;-92
2024/02/05 02:14:52;;;;;;;26.67;5.50;;;11.30;99.90;;;;;;4146160;28;20493;-91
2024/02/05 02:16:54;;;;;;;22.25;5.15;;;11.30;99.90;;;;;;4115644;28;20034;-92
2024/02/05 02:18:56;;;;;;;23.60;6.03;;;11.30;99.90;;;;;;4127916;28;20115;-91
2024/02/05 02:20:58;;;;;;;22.88;5.18;;;11.30;99.90;;;;;;4141275;28;20042;-92
2024/02/05 02:23:11;;;;;;;19.05;4.95;;;11.30;99.90;;;;;;4158624;28;20432;-91
2024/02/05 02:25:12;;;;;;;23.52;5.57;;;11.30;99.90;;;;;;4137111;28;20104;-91
2024/02/05 02:27:13;;;;;;;25.60;6.15;;;11.30;99.90;;;;;;4142744;28;20069;-92
2024/02/05 02:29:16;;;;;;;25.02;6.57;;;11.30;99.90;;;;;;4142135;28;20533;-92
2024/02/05 02:31:20;;;;;;;23.33;5.60;;;11.20;99.90;;;;;;4141799;28;20034;-91
2024/02/05 02:33:50;;;;;;;16.52;4.63;;;11.30;99.90;;;;;;4143144;28;20042;-91
2024/02/05 02:36:10;;;;;;;17.65;5.45;;;11.20;99.90;;;;;;4143472;28;20058;-91
2024/02/05 02:38:19;;;;;;;22.63;5.60;;;11.20;99.90;;;;;;4134219;28;20044;-91
2024/02/05 02:40:21;;;;;;;26.35;6.35;;;11.30;99.90;;;;;;4152154;28;20046;-90
2024/02/05 02:42:25;;;;;;;21.02;5.68;;;11.20;99.90;;;;;;4140390;28;20030;-92
2024/02/05 02:44:27;;;;;;;;;;;11.30;99.90;;;;;;4143275;28;20033;-91
2024/02/05 02:46:28;;;;;;;24.85;6.40;;;11.30;99.90;;;;;;4142585;28;19941;-91
2024/02/05 02:48:29;;;;;;;23.58;5.80;;;11.20;99.90;;;;;;4142744;28;20407;-92
2024/02/05 02:50:29;;;;;;;26.08;6.88;;;11.20;99.90;;;;;;4138545;28;20070;-90
2024/02/05 02:52:30;;;;;;;21.88;5.95;;;11.20;99.90;;;;;;4141671;28;20026;-92
2024/02/05 02:54:31;;;;;;;25.70;5.57;;;11.20;99.90;;;;;;4155794;28;20523;-92
2024/02/05 02:56:32;;;;;;;23.38;6.40;;;11.20;99.90;;;;;;4142993;28;20041;-92
2024/02/05 02:58:33;;;;;;;19.20;5.90;;;11.20;99.90;;;;;;4137411;28;20053;-94
2024/02/05 03:00:34;;;;;;;17.33;5.60;;;11.20;99.90;;;;;;4134002;28;20026;-92
2024/02/05 03:02:35;;;;;;;26.30;5.85;;;11.20;99.90;;;;;;4196392;28;20059;-94
2024/02/05 03:04:36;;;;;;;26.30;6.35;;;11.20;99.90;;;;;;4196092;28;20044;-92
2024/02/05 03:06:38;;;;;;;24.35;6.43;;;11.20;99.90;;;;;;4164430;28;20046;-92
2024/02/05 03:08:39;;;;;;;22.70;6.22;;;11.20;99.90;;;;;;4163089;28;20046;-94
2024/02/05 03:10:39;;;;;;;21.23;5.97;;;11.20;99.90;;;;;;4151095;28;20041;-92
2024/02/05 03:12:40;;;;;;;23.42;5.88;;;11.20;99.90;;;;;;4141055;28;20053;-91
2024/02/05 03:14:41;;;;;;;20.20;6.60;;;11.20;99.90;;;;;;4145453;28;20518;-92
2024/02/05 03:16:41;;;;;;;23.60;5.53;;;11.20;99.90;;;;;;4154780;28;20037;-94
2024/02/05 03:18:44;;;;;;;20.85;5.72;;;11.20;99.90;;;;;;4163925;28;20497;-91
2024/02/05 03:20:45;;;;;;;25.90;7.50;;;11.20;99.90;;;;;;4147404;28;20474;-92
2024/02/05 03:22:46;;;;;;;25.52;6.30;;;11.20;99.90;;;;;;4143704;28;20030;-93
2024/02/05 03:24:47;;;;;;;22.00;5.90;;;11.20;99.90;;;;;;4143292;28;20022;-92
2024/02/05 03:26:48;;;;;;;26.45;6.88;;;11.20;99.90;;;;;;4149010;28;20057;-92
2024/02/05 03:28:49;;;;;;;28.65;7.22;;;11.20;99.90;;;;;;4146365;28;20076;-93
2024/02/05 03:30:49;;;;;;;23.10;6.38;;;11.20;99.90;;;;;;4147584;28;20030;-91
2024/02/05 03:32:50;;;;;;;20.58;6.05;;;11.20;99.90;;;;;;4160889;28;20036;-92
2024/02/05 03:34:51;;;;;;;24.13;5.82;;;11.20;99.90;;;;;;4132579;28;20108;-92
2024/02/05 03:36:51;;;;;;;30.83;7.15;;;11.20;99.90;;;;;;4128331;28;20050;-91
2024/02/05 03:38:52;;;;;;;22.15;5.90;;;11.20;99.90;;;;;;4120786;28;20081;-91
2024/02/05 03:40:53;;;;;;;24.02;6.38;;;11.20;99.90;;;;;;4150123;28;20466;-92
2024/02/05 03:42:55;;;;;;;25.23;6.78;;;11.20;99.90;;;;;;4145163;28;20414;-93
2024/02/05 03:44:55;;;;;;;21.08;7.18;;;11.20;99.90;;;;;;4129291;28;20034;-91
2024/02/05 03:46:56;;;;;;;18.83;5.63;;;11.20;99.90;;;;;;4129514;28;20026;-93
2024/02/05 03:48:56;;;;;;;24.00;6.10;;;11.20;99.90;;;;;;4125290;28;20034;-92
2024/02/05 03:50:57;;;;;;;23.23;6.35;;;11.20;99.90;;;;;;4126032;28;20031;-92
2024/02/05 03:52:58;;;;;;;20.50;6.13;;;11.20;99.90;;;;;;4125354;28;20499;-92
2024/02/05 03:54:59;;;;;;;32.53;6.85;;;11.20;99.90;;;;;;4130929;28;20118;-92
2024/02/05 03:56:59;;;;;;;26.95;7.07;;;11.20;99.90;;;;;;4129210;28;20442;-92
2024/02/05 03:59:00;;;;;;;25.27;6.25;;;11.20;99.90;;;;;;4121067;28;21169;-92
2024/02/05 04:01:01;;;;;;;33.78;6.75;;;11.20;99.90;;;;;;4129997;28;20084;-92
2024/02/05 04:03:01;;;;;;;32.97;7.10;;;11.20;99.90;;;;;;4126573;28;20380;-92
2024/02/05 04:05:03;;;;;;;27.88;7.10;;;11.20;99.90;;;;;;4131138;28;20100;-92
2024/02/05 04:07:04;;;;;;;25.35;6.43;;;11.10;99.90;;;;;;4132295;28;20034;-93
2024/02/05 04:09:07;;;;;;;23.60;5.78;;;11.10;99.90;;;;;;4131196;28;20499;-92
2024/02/05 04:11:07;;;;;;;24.48;6.25;;;11.20;99.90;;;;;;4147333;28;20034;-92
2024/02/05 04:13:09;;;;;;;39.85;8.10;;;11.20;99.90;;;;;;4140614;28;20039;-92
2024/02/05 04:15:10;;;;;;;23.67;6.32;;;11.20;99.90;;;;;;4148821;28;20030;-94
2024/02/05 04:17:11;;;;;;;30.38;6.68;;;11.10;99.90;;;;;;4132701;28;20094;-94
2024/02/05 04:19:12;;;;;;;23.33;6.03;;;11.10;99.90;;;;;;4129958;28;20038;-93
2024/02/05 04:21:13;;;;;;;25.75;5.65;;;11.10;99.90;;;;;;4129871;28;20058;-94
2024/02/05 04:23:14;;;;;;;26.45;6.18;;;11.10;99.90;;;;;;4146946;28;20391;-93
2024/02/05 04:25:14;;;;;;;26.27;6.90;;;11.10;99.90;;;;;;4131187;28;20030;-92
2024/02/05 04:27:15;;;;;;;21.15;5.90;;;11.10;99.90;;;;;;4133417;28;20038;-92
2024/02/05 04:29:20;;;;;;;27.90;6.40;;;11.10;99.90;;;;;;4132648;28;20082;-92
2024/02/05 04:31:21;;;;;;;31.65;6.22;;;11.10;99.90;;;;;;4132068;28;20038;-92
2024/02/05 04:33:22;;;;;;;23.05;6.07;;;11.10;99.90;;;;;;4149779;28;20161;-93
2024/02/05 04:35:23;;;;;;;27.38;7.10;;;11.10;99.90;;;;;;4131029;28;20109;-91
2024/02/05 04:37:25;;;;;;;28.08;6.78;;;11.10;99.90;;;;;;4146674;28;20038;-92
2024/02/05 04:39:27;;;;;;;20.55;6.40;;;11.10;99.90;;;;;;4156249;28;20073;-92
2024/02/05 04:41:28;;;;;;;23.10;6.18;;;11.10;99.90;;;;;;4146514;28;20046;-91
2024/02/05 04:43:28;;;;;;;22.67;6.72;;;11.10;99.90;;;;;;4157732;28;20026;-92
2024/02/05 04:45:29;;;;;;;24.23;6.25;;;11.10;99.90;;;;;;4140388;28;20050;-93
2024/02/05 04:47:30;;;;;;;20.60;6.32;;;11.10;99.90;;;;;;4154414;28;20041;-90
2024/02/05 04:49:30;;;;;;;29.23;6.22;;;11.00;99.90;;;;;;4158396;28;20076;-91
2024/02/05 04:51:31;;;;;;;25.63;7.70;;;11.10;99.90;;;;;;4172791;28;20034;-93
2024/02/05 04:53:32;;;;;;;23.80;6.53;;;11.10;99.90;;;;;;4157130;28;20573;-91
2024/02/05 04:55:33;;;;;;;31.50;7.20;;;11.00;99.90;;;;;;4174126;28;20036;-93
2024/02/05 04:57:34;;;;;;;30.85;7.05;;;11.10;99.90;;;;;;4175087;28;20072;-92
2024/02/05 04:59:35;;;;;;;25.60;6.85;;;11.10;99.90;;;;;;4140804;28;20058;-92
2024/02/05 05:01:36;;;;;;;33.92;6.60;;;11.00;99.90;;;;;;4170312;28;20056;-93
2024/02/05 05:03:36;;;;;;;22.52;6.75;;;11.10;99.90;;;;;;4154372;28;20053;-92
2024/02/05 05:05:37;;;;;;;25.08;6.43;;;11.10;99.90;;;;;;4157786;28;20026;-92
2024/02/05 05:07:40;;;;;;;23.15;6.40;;;11.00;99.90;;;;;;4150248;28;20049;-93
2024/02/05 05:09:43;;;;;;;31.05;7.35;;;11.00;99.90;;;;;;4156809;28;20172;-91
2024/02/05 05:11:44;;;;;;;26.73;6.72;;;11.00;99.90;;;;;;4156328;28;20033;-92
2024/02/05 05:13:45;;;;;;;25.00;6.63;;;11.00;99.90;;;;;;4154477;28;20038;-91
2024/02/05 05:15:48;;;;;;;29.05;6.90;;;11.00;99.90;;;;;;4147529;28;20022;-91
2024/02/05 05:17:49;;;;;;;26.15;6.90;;;11.00;99.90;;;;;;4149195;28;20105;-91
2024/02/05 05:19:51;;;;;;;27.27;7.00;;;11.00;99.90;;;;;;4138974;28;20049;-90
2024/02/05 05:21:52;;;;;;;27.20;6.75;;;11.00;99.90;;;;;;4149181;28;20049;-90
2024/02/05 05:23:53;;;;;;;24.02;6.57;;;11.00;99.90;;;;;;4138494;28;20050;-90
2024/02/05 05:25:55;;;;;;;34.20;7.55;;;11.00;99.90;;;;;;4157804;28;20061;-89
2024/02/05 05:27:55;;;;;;;23.05;6.18;;;11.00;99.90;;;;;;4138764;28;20038;-90
2024/02/05 05:29:56;;;;;;;21.88;6.20;;;11.00;99.90;;;;;;4136814;28;20034;-91
2024/02/05 05:31:57;;;;;;;24.83;6.40;;;11.00;99.90;;;;;;4155984;28;20093;-92
2024/02/05 05:33:58;;;;;;;21.23;5.20;;;11.00;99.90;;;;;;4128161;28;20038;-89
2024/02/05 05:35:58;;;;;;;30.23;6.30;;;11.00;99.90;;;;;;4105275;28;20034;-91
2024/02/05 05:38:00;;;;;;;25.35;6.85;;;11.00;99.90;;;;;;4132345;28;20058;-91
2024/02/05 05:40:01;;;;;;;21.35;6.03;;;11.00;99.90;;;;;;4132454;28;20026;-91
2024/02/05 05:42:02;;;;;;;21.20;5.18;;;11.00;99.90;;;;;;4143637;28;20045;-91
2024/02/05 05:44:03;;;;;;;32.83;7.80;;;11.00;99.90;;;;;;4101260;28;20689;-91
2024/02/05 05:46:08;;;;;;;31.92;7.30;;;11.00;99.90;;;;;;4119754;28;20399;-91
2024/02/05 05:48:12;;;;;;;25.42;6.15;;;11.00;99.90;;;;;;4111546;28;20062;-92
2024/02/05 05:50:13;;;;;;;22.23;5.65;;;10.90;99.90;;;;;;4104302;28;20038;-91
2024/02/05 05:52:16;;;;;;;21.42;6.25;;;10.90;99.90;;;;;;4107387;28;20096;-91
2024/02/05 05:54:16;;;;;;;21.92;5.28;;;11.00;99.90;;;;;;4117918;28;20038;-92
2024/02/05 05:56:18;;;;;;;31.55;6.88;;;10.90;99.90;;;;;;4118818;28;20049;-92
2024/02/05 05:58:19;;;;;;;25.35;7.15;;;10.90;99.90;;;;;;4154722;28;20061;-91
2024/02/05 06:00:29;;;;;;;26.55;6.18;;;10.90;99.90;;;;;;4133670;28;20054;-91
2024/02/05 06:02:31;;;;;;;34.08;6.95;;;10.90;99.90;;;;;;4135996;28;20030;-91
2024/02/05 06:04:32;;;;;;;28.77;7.03;;;10.90;99.90;;;;;;4149725;28;20101;-91
2024/02/05 06:06:33;;;;;;;28.33;6.40;;;10.90;99.90;;;;;;4129555;28;20094;-92
2024/02/05 06:08:34;;;;;;;25.27;6.00;;;10.80;99.90;;;;;;4117414;28;20039;-91
2024/02/05 06:10:37;;;;;;;27.63;6.03;;;10.90;99.90;;;;;;4118396;28;20029;-92
2024/02/05 06:12:39;;;;;;;26.00;5.97;;;10.90;99.90;;;;;;4123733;28;20022;-91
2024/02/05 06:14:43;;;;;;;25.23;5.00;;;10.80;99.90;;;;;;4119714;28;20041;-91
2024/02/05 06:16:43;;;;;;;27.67;6.57;;;10.80;99.90;;;;;;4121613;28;20030;-92
2024/02/05 06:18:44;;;;;;;26.80;5.30;;;10.80;99.90;;;;;;4122904;28;20501;-91
2024/02/05 06:20:45;;;;;;;20.88;5.28;;;10.80;99.90;;;;;;4128716;28;20030;-91
2024/02/05 06:22:46;;;;;;;20.55;5.43;;;10.90;99.90;;;;;;4122241;28;20026;-91
2024/02/05 06:24:48;;;;;;;17.02;5.10;;;10.80;99.90;;;;;;4138659;28;20026;-92
2024/02/05 06:26:52;;;;;;;21.27;5.03;;;10.80;99.90;;;;;;4114292;28;20411;-92
2024/02/05 06:28:52;;;;;;;26.63;5.80;;;10.80;99.90;;;;;;4125460;28;20049;-92
2024/02/05 06:30:53;;;;;;;25.50;6.07;;;10.80;99.90;;;;;;4147566;28;20503;-93
2024/02/05 06:32:54;;;;;;;21.85;5.80;;;10.80;99.90;;;;;;4128479;28;20034;-93
2024/02/05 06:34:55;;;;;;;21.98;5.70;;;10.80;99.90;;;;;;4158072;28;20037;-93
2024/02/05 06:36:55;;;;;;;26.30;5.95;;;10.80;99.90;;;;;;4143255;28;20529;-91
2024/02/05 06:38:57;;;;;;;31.20;5.93;;;10.80;99.90;;;;;;4142358;28;20038;-92
2024/02/05 06:40:58;;;;;;;24.45;5.63;;;10.90;99.90;;;;;;4149530;28;20100;-92
2024/02/05 06:42:59;;;;;;;23.25;5.93;;;10.80;99.90;;;;;;4143003;28;20036;-92
2024/02/05 06:45:00;;;;;;;24.45;5.78;;;10.80;99.90;;;;;;4156552;28;20447;-91
2024/02/05 06:47:03;;;;;;;19.55;4.57;;;10.80;99.90;;;;;;4145647;28;20120;-92
2024/02/05 06:49:03;;;;;;;28.75;5.47;;;10.80;99.90;;;;;;4128938;28;20041;-92
2024/02/05 06:51:04;;;;;;;22.15;4.63;;;10.80;99.90;;;;;;4151806;28;20518;-91
2024/02/05 06:53:05;;;;;;;27.33;4.72;;;10.80;99.90;;;;;;4141010;28;20065;-91
2024/02/05 06:55:06;;;;;;;31.15;5.50;;;10.80;99.90;;;;;;4164793;28;20033;-91
2024/02/05 06:57:07;;;;;;;26.80;5.35;;;10.80;99.90;;;;;;4173249;28;20040;-92
2024/02/05 06:59:08;;;;;;;26.75;6.28;;;10.80;99.90;;;;;;4153156;28;20126;-92
2024/02/05 07:01:11;;;;;;;20.23;5.32;;;10.80;99.90;;;;;;4150768;28;20094;-91
2024/02/05 07:03:12;;;;;;;19.70;5.03;;;10.80;99.90;;;;;;4154258;28;20043;-91
2024/02/05 07:05:14;;;;;;;28.52;5.80;;;10.80;99.90;;;;;;4125078;28;20140;-92
2024/02/05 07:07:15;;;;;;;29.63;5.40;;;10.80;99.90;;;;;;4159903;28;20040;-92
2024/02/05 07:09:26;;;;;;;28.48;5.45;;;10.80;99.90;;;;;;4134016;28;20566;-92
2024/02/05 07:11:27;;;;;;;19.70;5.10;;;10.70;99.90;;;;;;4145819;28;20034;-90
2024/02/05 07:13:27;;;;;;;24.45;5.57;;;10.70;99.90;;;;;;4142636;28;20597;-93
2024/02/05 07:15:28;;;;;;;23.83;4.82;;;10.80;99.90;;;;;;4143686;28;20487;-91
2024/02/05 07:17:33;;;;;;;27.80;6.18;;;10.70;99.90;;;;;;4115279;28;20049;-91
2024/02/05 07:19:36;;;;;;;24.52;4.90;;;10.70;99.90;;;;;;4136381;28;20068;-92
2024/02/05 07:21:39;;;;;;;28.10;5.60;;;10.80;99.90;;;;;;4152682;28;20041;-90
2024/02/05 07:23:41;;;;;;;24.20;5.05;;;10.80;99.90;;;;;;4120680;28;20141;-92
2024/02/05 07:25:41;;;;;;;24.98;5.22;;;10.80;99.90;;;;;;4134537;28;20034;-90
2024/02/05 07:27:42;;;;;;;20.10;4.45;;;10.70;99.90;;;;;;4144045;28;20029;-91
2024/02/05 07:29:43;;;;;;;29.30;5.50;;;10.70;99.90;;;;;;4146263;28;20042;-91
2024/02/05 07:31:43;;;;;;;23.33;5.13;;;10.70;99.90;;;;;;4139967;28;20030;-92
2024/02/05 07:33:44;;;;;;;30.83;5.70;;;10.70;99.90;;;;;;4158690;28;20518;-90
2024/02/05 07:35:45;;;;;;;22.77;5.55;;;10.70;99.90;;;;;;4155961;28;20053;-90
2024/02/05 07:37:46;;;;;;;21.70;4.95;;;10.80;99.90;;;;;;4141535;28;20522;-91
2024/02/05 07:39:47;;;;;;;24.75;5.30;;;10.70;99.90;;;;;;4159145;28;20037;-90
2024/02/05 07:41:48;;;;;;;19.33;4.77;;;10.70;99.90;;;;;;4157810;28;20084;-90
2024/02/05 07:43:49;;;;;;;20.30;4.65;;;10.70;99.90;;;;;;4142382;28;20029;-90
2024/02/05 07:45:50;;;;;;;23.70;5.82;;;10.70;99.90;;;;;;4135078;28;20538;-90
2024/02/05 07:47:53;;;;;;;23.17;4.65;;;10.70;99.90;;;;;;4138176;28;20062;-89
2024/02/05 07:49:54;;;;;;;21.65;3.83;;;10.80;99.90;;;;;;4138889;28;20062;-90
2024/02/05 07:51:55;;;;;;;24.90;5.15;;;10.80;99.90;;;;;;4137437;28;20049;-92
2024/02/05 07:53:56;;;;;;;18.55;4.53;;;10.70;99.90;;;;;;4138759;28;20042;-90
2024/02/05 07:55:57;;;;;;;28.42;6.25;;;10.80;99.90;;;;;;4138192;28;20048;-90
2024/02/05 07:57:57;;;;;;;19.15;4.55;;;10.80;99.90;;;;;;4134014;28;20056;-91
2024/02/05 07:59:58;;;;;;;28.33;5.50;;;10.80;99.90;;;;;;4137669;28;20578;-91
2024/02/05 08:02:00;;;;;;;25.65;5.00;;;10.80;99.90;;;;;;4132639;28;20509;-91
2024/02/05 08:04:00;;;;;;;19.25;4.28;;;10.80;99.90;;;;;;4138948;28;20546;-90
2024/02/05 08:06:06;;;;;;;22.17;4.63;;;10.80;99.90;;;;;;4115173;28;20046;-90
2024/02/05 08:08:07;;;;;;;19.17;3.92;;;10.80;99.90;;;;;;4152337;28;20037;-91
2024/02/05 08:10:08;;;;;;;21.27;4.75;;;10.90;99.90;;;;;;4137674;28;20045;-90
2024/02/05 08:12:15;;;;;;;24.45;5.10;;;10.90;99.90;;;;;;4139494;28;20805;-90
2024/02/05 08:14:16;;;;;;;18.40;4.43;;;10.80;99.90;;;;;;4162643;28;20044;-91
2024/02/05 08:16:17;;;;;;;18.77;4.57;;;10.80;99.90;;;;;;4149035;28;20046;-92
2024/02/05 08:18:28;;;;;;;;;;;;;;;;;;;;;
2024/02/05 08:20:29;;;;;;;25.45;5.07;;;10.80;99.90;;;;;;4132893;28;20053;-93
2024/02/05 08:22:49;;;;;;;18.05;3.95;;;10.80;99.90;;;;;;4140259;28;20041;-91
2024/02/05 08:25:08;;;;;;;33.92;6.22;;;10.90;99.90;;;;;;4129454;28;20048;-90
2024/02/05 08:27:27;;;;;;;21.05;5.30;;;10.80;99.90;;;;;;4115514;28;20049;-91
2024/02/05 08:29:28;;;;;;;29.20;6.20;;;10.80;99.90;;;;;;4135856;28;20510;-90
2024/02/05 08:31:29;;;;;;;27.15;5.45;;;10.80;99.90;;;;;;4132674;28;20652;-91
2024/02/05 08:33:31;;;;;;;27.33;5.13;;;10.80;99.90;;;;;;4157867;28;20067;-91
2024/02/05 08:35:32;;;;;;;30.10;6.07;;;10.80;99.90;;;;;;4118641;28;20027;-90
2024/02/05 08:37:32;;;;;;;24.67;4.75;;;10.80;99.90;;;;;;4119732;28;20100;-91
2024/02/05 08:39:33;;;;;;;24.10;4.57;;;10.80;99.90;;;;;;4119107;28;20467;-92
2024/02/05 08:41:34;;;;;;;19.55;4.40;;;10.80;99.90;;;;;;4120090;28;20046;-90
2024/02/05 08:43:35;;;;;;;23.17;5.20;;;10.90;99.90;;;;;;4105146;28;20035;-91
2024/02/05 08:45:36;;;;;;;19.20;4.65;;;10.90;99.90;;;;;;4119773;28;20435;-90
2024/02/05 08:47:37;;;;;;;22.17;5.43;;;10.90;99.90;;;;;;4119189;28;20038;-90
2024/02/05 08:49:37;;;;;;;14.05;4.32;;;10.90;99.90;;;;;;4136295;28;20040;-91
2024/02/05 08:51:40;;;;;;;18.55;4.63;;;10.90;99.90;;;;;;4114231;28;20061;-93
2024/02/05 08:53:42;;;;;;;25.60;5.10;;;10.90;99.90;;;;;;4112874;28;20093;-91
2024/02/05 08:55:45;;;;;;;13.65;4.20;;;10.90;99.90;;;;;;4126320;28;20042;-92
2024/02/05 08:57:49;;;;;;;20.38;5.05;;;11.00;99.90;;;;;;4120553;28;20049;-93
2024/02/05 08:59:53;;;;;;;26.23;5.70;;;10.90;99.90;;;;;;4149844;28;20045;-91
2024/02/05 09:01:56;;;;;;;25.73;5.43;;;11.00;99.90;;;;;;4123274;28;20118;-92
2024/02/05 09:03:58;;;;;;;25.52;5.05;;;10.90;99.90;;;;;;4139769;28;20041;-92
2024/02/05 09:06:02;;;;;;;27.17;5.50;;;10.90;99.90;;;;;;4114713;28;20499;-93
2024/02/05 09:08:05;;;;;;;19.42;4.70;;;10.90;99.90;;;;;;4118641;28;20037;-91
2024/02/05 09:10:07;;;;;;;21.55;4.93;;;10.90;99.90;;;;;;4127529;28;20481;-91
2024/02/05 09:12:08;;;;;;;23.65;4.72;;;11.00;99.90;;;;;;4118123;28;20046;-91
2024/02/05 09:14:11;;;;;;;33.92;5.88;;;10.90;99.90;;;;;;4119944;28;20038;-90
2024/02/05 09:16:14;;;;;;;22.02;4.57;;;10.90;99.90;;;;;;4123885;28;20038;-90
2024/02/05 09:18:15;;;;;;;23.30;5.68;;;10.90;99.90;;;;;;4120381;28;20190;-89
2024/02/05 09:20:16;;;;;;;27.73;5.80;;;10.90;99.90;;;;;;4138194;28;20054;-92
2024/02/05 09:22:17;;;;;;;21.70;4.60;;;10.90;99.90;;;;;;4107274;28;20042;-90
2024/02/05 09:24:23;;;;;;;29.77;5.60;;;10.90;99.90;;;;;;4099883;28;20118;-89
2024/02/05 09:26:24;;;;;;;20.65;5.07;;;10.90;99.90;;;;;;4129677;28;20034;-91
2024/02/05 09:28:25;;;;;;;24.83;5.28;;;10.90;99.90;;;;;;4116396;28;20069;-92
2024/02/05 09:30:26;;;;;;;24.98;5.45;;;10.90;99.90;;;;;;4116511;28;20053;-91
2024/02/05 09:32:30;;;;;;;23.73;5.53;;;10.90;99.90;;;;;;4110845;28;20042;-91
2024/02/05 09:34:32;;;;;;;19.52;4.68;;;11.00;99.90;;;;;;4129841;28;20042;-92
2024/02/05 09:36:33;;;;;;;28.02;6.20;;;11.00;99.90;;;;;;4118539;28;20073;-92
2024/02/05 09:38:36;;;;;;;27.80;5.32;;;11.00;99.90;;;;;;4150072;28;20057;-91
2024/02/05 09:40:37;;;;;;;23.17;5.10;;;11.00;99.90;;;;;;4148118;28;20030;-92
2024/02/05 09:42:41;;;;;;;20.20;4.75;;;11.00;99.90;;;;;;4138945;28;20084;-91
2024/02/05 09:44:45;;;;;;;28.10;6.20;;;11.00;99.90;;;;;;4139853;28;20038;-91
2024/02/05 09:46:52;;;;;;;21.80;5.05;;;11.00;99.90;;;;;;4139205;28;20466;-91
2024/02/05 09:48:54;;;;;;;25.58;5.07;;;11.00;99.90;;;;;;4136941;28;20089;-90
2024/02/05 09:50:55;;;;;;;25.95;5.63;;;11.00;99.90;;;;;;4132973;28;20034;-93
2024/02/05 09:52:56;;;;;;;31.70;6.10;;;11.00;99.90;;;;;;4162467;28;20076;-90
2024/02/05 09:54:57;;;;;;;25.08;5.22;;;11.10;99.90;;;;;;4143727;28;20034;-92
2024/02/05 09:57:00;;;;;;;25.58;5.85;;;11.00;99.90;;;;;;4143261;28;20041;-92
2024/02/05 09:59:02;;;;;;;28.73;5.65;;;11.00;99.90;;;;;;4143640;28;20037;-91
2024/02/05 10:01:25;;;;;;;25.55;5.53;;;11.10;99.90;;;;;;4130868;28;20125;-94
2024/02/05 10:03:45;;;;;;;29.17;4.90;;;11.10;99.90;;;;;;4121067;28;20036;-90
2024/02/05 10:06:09;;;;;;;26.85;5.70;;;11.10;99.90;;;;;;4134741;28;20037;-90
2024/02/05 10:08:30;;;;;;;24.45;5.00;;;11.10;99.90;;;;;;4153177;28;20031;-89
2024/02/05 10:10:31;;;;;;;34.30;7.10;;;11.10;99.90;;;;;;4137088;28;20069;-91
2024/02/05 10:12:35;;;;;;;25.88;5.30;;;11.10;99.90;;;;;;4132931;28;20383;-90
2024/02/05 10:14:40;;;;;;;34.28;5.70;;;11.20;99.90;;;;;;4142379;28;20117;-90
2024/02/05 10:16:43;;;;;;;22.60;5.05;;;11.20;99.90;;;;;;4141158;28;20121;-91
2024/02/05 10:18:46;;;;;;;17.73;4.93;;;11.20;99.90;;;;;;4156382;28;20354;-91
2024/02/05 10:20:47;;;;;;;33.97;6.43;;;11.20;99.90;;;;;;4144819;28;20030;-92
2024/02/05 10:22:49;;;;;;;34.25;5.57;;;11.20;99.90;;;;;;4146986;28;20469;-90
2024/02/05 10:24:49;;;;;;;28.15;6.43;;;11.30;99.90;;;;;;4117102;28;20034;-91
2024/02/05 10:26:50;;;;;;;26.80;4.65;;;11.20;99.90;;;;;;4137368;28;20121;-91
2024/02/05 10:28:51;;;;;;;29.20;6.80;;;11.20;99.90;;;;;;4138308;28;20062;-93